sensor_id;sensor_type;location;lat;lon;timestamp;P1;durP1;ratioP1;P2;durP2;ratioP2
3995;SDS011;2012;49.794;9.722;2024-01-07T00:02:20;18.50;;;6.00;;
3995;SDS011;2012;49.794;9.722;2024-01-07T00:04:47;8.03;;;6.40;;
3995;SDS011;2012;49.794;9.722;2024-01-07T00:07:14;10.33;;;6.60;;
3995;SDS011;2012;49.794;9.722;2024-01-07T00:09:41;7.10;;;5.60;;
3995;SDS011;2012;49.794;9.722;2024-01-07T00:12:08;8.53;;;5.80;;
3995;SDS011;2012;49.794;9.722;2024-01-07T00:14:35;8.30;;;5.60;;
3995;SDS011;2012;49.794;9.722;2024-01-07T00:17:02;14.90;;;8.20;;
3995;SDS011;2012;49.794;9.722;2024-01-07T00:19:29;7.63;;;6.33;;
3995;SDS011;2012;49.794;9.722;2024-01-07T00:21:58;8.03;;;5.70;;
3995;SDS011;2012;49.794;9.722;2024-01-07T00:24:24;8.00;;;5.90;;
3995;SDS011;2012;49.794;9.722;2024-01-07T00:26:54;6.97;;;5.97;;
3995;SDS011;2012;49.794;9.722;2024-01-07T00:29:21;8.53;;;6.27;;
3995;SDS011;2012;49.794;9.722;2024-01-07T00:31:48;9.10;;;6.20;;
3995;SDS011;2012;49.794;9.722;2024-01-07T00:34:15;12.43;;;6.23;;
3995;SDS011;2012;49.794;9.722;2024-01-07T00:36:43;9.63;;;5.90;;
3995;SDS011;2012;49.794;9.722;2024-01-07T00:39:09;16.63;;;6.50;;
3995;SDS011;2012;49.794;9.722;2024-01-07T00:41:37;10.13;;;6.50;;
3995;SDS011;2012;49.794;9.722;2024-01-07T00:44:04;8.67;;;6.60;;
3995;SDS011;2012;49.794;9.722;2024-01-07T00:46:30;10.80;;;6.77;;
3995;SDS011;2012;49.794;9.722;2024-01-07T00:48:57;10.50;;;5.80;;
3995;SDS011;2012;49.794;9.722;2024-01-07T00:51:25;9.50;;;5.97;;
3995;SDS011;2012;49.794;9.722;2024-01-07T00:53:51;11.93;;;7.37;;
3995;SDS011;2012;49.794;9.722;2024-01-07T00:56:19;11.73;;;7.67;;
3995;SDS011;2012;49.794;9.722;2024-01-07T00:58:46;14.40;;;7.17;;
3995;SDS011;2012;49.794;9.722;2024-01-07T01:01:12;19.37;;;7.13;;
3995;SDS011;2012;49.794;9.722;2024-01-07T01:03:39;11.33;;;7.57;;
3995;SDS011;2012;49.794;9.722;2024-01-07T01:06:07;10.97;;;6.87;;
3995;SDS011;2012;49.794;9.722;2024-01-07T01:08:34;9.73;;;6.20;;
3995;SDS011;2012;49.794;9.722;2024-01-07T01:11:01;13.53;;;7.87;;
3995;SDS011;2012;49.794;9.722;2024-01-07T01:13:27;10.83;;;6.97;;
3995;SDS011;2012;49.794;9.722;2024-01-07T01:15:55;9.03;;;6.63;;
3995;SDS011;2012;49.794;9.722;2024-01-07T01:18:22;9.63;;;6.80;;
3995;SDS011;2012;49.794;9.722;2024-01-07T01:20:49;12.47;;;7.00;;
3995;SDS011;2012;49.794;9.722;2024-01-07T01:23:16;10.93;;;7.13;;
3995;SDS011;2012;49.794;9.722;2024-01-07T01:25:43;24.83;;;7.17;;
3995;SDS011;2012;49.794;9.722;2024-01-07T01:28:11;9.47;;;7.37;;
3995;SDS011;2012;49.794;9.722;2024-01-07T01:30:37;7.60;;;6.73;;
3995;SDS011;2012;49.794;9.722;2024-01-07T01:33:04;13.37;;;7.20;;
3995;SDS011;2012;49.794;9.722;2024-01-07T01:35:31;16.83;;;6.73;;
3995;SDS011;2012;49.794;9.722;2024-01-07T01:37:59;13.07;;;7.40;;
3995;SDS011;2012;49.794;9.722;2024-01-07T01:40:26;11.60;;;7.60;;
3995;SDS011;2012;49.794;9.722;2024-01-07T01:42:53;8.53;;;6.57;;
3995;SDS011;2012;49.794;9.722;2024-01-07T01:45:20;7.87;;;6.50;;
3995;SDS011;2012;49.794;9.722;2024-01-07T01:47:47;9.57;;;6.83;;
3995;SDS011;2012;49.794;9.722;2024-01-07T01:50:14;13.07;;;7.00;;
3995;SDS011;2012;49.794;9.722;2024-01-07T01:52:44;12.20;;;7.60;;
3995;SDS011;2012;49.794;9.722;2024-01-07T01:55:12;9.73;;;7.10;;
3995;SDS011;2012;49.794;9.722;2024-01-07T01:57:40;10.73;;;7.80;;
3995;SDS011;2012;49.794;9.722;2024-01-07T02:00:07;10.90;;;6.67;;
3995;SDS011;2012;49.794;9.722;2024-01-07T02:02:35;14.90;;;7.17;;
3995;SDS011;2012;49.794;9.722;2024-01-07T02:05:02;10.07;;;7.20;;
3995;SDS011;2012;49.794;9.722;2024-01-07T02:07:30;14.40;;;7.80;;
3995;SDS011;2012;49.794;9.722;2024-01-07T02:09:58;10.53;;;8.00;;
3995;SDS011;2012;49.794;9.722;2024-01-07T02:12:26;9.60;;;7.50;;
3995;SDS011;2012;49.794;9.722;2024-01-07T02:14:52;11.03;;;7.07;;
3995;SDS011;2012;49.794;9.722;2024-01-07T02:17:19;12.30;;;7.73;;
3995;SDS011;2012;49.794;9.722;2024-01-07T02:19:47;13.77;;;8.97;;
3995;SDS011;2012;49.794;9.722;2024-01-07T02:22:14;10.33;;;7.90;;
3995;SDS011;2012;49.794;9.722;2024-01-07T02:24:41;10.90;;;8.13;;
3995;SDS011;2012;49.794;9.722;2024-01-07T02:27:08;12.73;;;8.03;;
3995;SDS011;2012;49.794;9.722;2024-01-07T02:29:35;11.67;;;9.00;;
3995;SDS011;2012;49.794;9.722;2024-01-07T02:32:02;12.87;;;9.00;;
3995;SDS011;2012;49.794;9.722;2024-01-07T02:34:29;11.17;;;9.10;;
3995;SDS011;2012;49.794;9.722;2024-01-07T02:36:56;17.87;;;8.70;;
3995;SDS011;2012;49.794;9.722;2024-01-07T02:39:23;11.40;;;8.43;;
3995;SDS011;2012;49.794;9.722;2024-01-07T02:41:50;18.10;;;8.97;;
3995;SDS011;2012;49.794;9.722;2024-01-07T02:44:16;16.63;;;8.87;;
3995;SDS011;2012;49.794;9.722;2024-01-07T02:46:43;11.90;;;8.83;;
3995;SDS011;2012;49.794;9.722;2024-01-07T02:49:12;13.40;;;8.87;;
3995;SDS011;2012;49.794;9.722;2024-01-07T02:51:39;12.37;;;9.20;;
3995;SDS011;2012;49.794;9.722;2024-01-07T02:54:07;11.50;;;8.37;;
3995;SDS011;2012;49.794;9.722;2024-01-07T02:56:34;12.60;;;7.80;;
3995;SDS011;2012;49.794;9.722;2024-01-07T02:59:01;12.80;;;8.53;;
3995;SDS011;2012;49.794;9.722;2024-01-07T03:01:28;11.30;;;7.50;;
3995;SDS011;2012;49.794;9.722;2024-01-07T03:03:55;14.23;;;8.50;;
3995;SDS011;2012;49.794;9.722;2024-01-07T03:06:22;12.17;;;8.57;;
3995;SDS011;2012;49.794;9.722;2024-01-07T03:08:53;12.97;;;8.53;;
3995;SDS011;2012;49.794;9.722;2024-01-07T03:11:20;15.40;;;9.10;;
3995;SDS011;2012;49.794;9.722;2024-01-07T03:13:47;8.90;;;6.93;;
3995;SDS011;2012;49.794;9.722;2024-01-07T03:16:21;15.90;;;8.30;;
3995;SDS011;2012;49.794;9.722;2024-01-07T03:18:48;8.60;;;7.10;;
3995;SDS011;2012;49.794;9.722;2024-01-07T03:21:24;14.07;;;8.07;;
3995;SDS011;2012;49.794;9.722;2024-01-07T03:23:51;12.00;;;8.13;;
3995;SDS011;2012;49.794;9.722;2024-01-07T03:26:18;23.80;;;8.30;;
3995;SDS011;2012;49.794;9.722;2024-01-07T03:28:46;11.73;;;8.80;;
3995;SDS011;2012;49.794;9.722;2024-01-07T03:31:14;10.57;;;8.53;;
3995;SDS011;2012;49.794;9.722;2024-01-07T03:33:42;12.80;;;9.20;;
3995;SDS011;2012;49.794;9.722;2024-01-07T03:36:13;11.10;;;8.57;;
3995;SDS011;2012;49.794;9.722;2024-01-07T03:38:40;14.53;;;9.73;;
3995;SDS011;2012;49.794;9.722;2024-01-07T03:41:07;13.20;;;10.23;;
3995;SDS011;2012;49.794;9.722;2024-01-07T03:43:34;14.77;;;9.60;;
3995;SDS011;2012;49.794;9.722;2024-01-07T03:46:01;13.40;;;9.27;;
3995;SDS011;2012;49.794;9.722;2024-01-07T03:48:28;16.57;;;9.63;;
3995;SDS011;2012;49.794;9.722;2024-01-07T03:50:55;14.67;;;9.30;;
3995;SDS011;2012;49.794;9.722;2024-01-07T03:53:23;11.90;;;9.10;;
3995;SDS011;2012;49.794;9.722;2024-01-07T03:55:50;11.97;;;9.50;;
3995;SDS011;2012;49.794;9.722;2024-01-07T03:58:16;19.30;;;8.40;;
3995;SDS011;2012;49.794;9.722;2024-01-07T04:00:43;11.20;;;8.43;;
3995;SDS011;2012;49.794;9.722;2024-01-07T04:03:10;17.07;;;11.17;;
3995;SDS011;2012;49.794;9.722;2024-01-07T04:05:37;12.53;;;9.40;;
3995;SDS011;2012;49.794;9.722;2024-01-07T04:08:04;17.40;;;10.10;;
3995;SDS011;2012;49.794;9.722;2024-01-07T04:10:31;14.00;;;9.40;;
3995;SDS011;2012;49.794;9.722;2024-01-07T04:12:58;11.90;;;9.20;;
3995;SDS011;2012;49.794;9.722;2024-01-07T04:15:25;13.30;;;9.33;;
3995;SDS011;2012;49.794;9.722;2024-01-07T04:17:52;13.07;;;8.30;;
3995;SDS011;2012;49.794;9.722;2024-01-07T04:20:20;10.30;;;8.53;;
3995;SDS011;2012;49.794;9.722;2024-01-07T04:22:47;15.57;;;10.50;;
3995;SDS011;2012;49.794;9.722;2024-01-07T04:25:13;17.27;;;9.30;;
3995;SDS011;2012;49.794;9.722;2024-01-07T04:27:40;12.97;;;9.77;;
3995;SDS011;2012;49.794;9.722;2024-01-07T04:30:07;12.53;;;8.47;;
3995;SDS011;2012;49.794;9.722;2024-01-07T04:32:35;10.60;;;8.40;;
3995;SDS011;2012;49.794;9.722;2024-01-07T04:35:02;14.57;;;9.67;;
3995;SDS011;2012;49.794;9.722;2024-01-07T04:37:29;15.17;;;8.70;;
3995;SDS011;2012;49.794;9.722;2024-01-07T04:39:56;11.67;;;8.00;;
3995;SDS011;2012;49.794;9.722;2024-01-07T04:42:23;12.83;;;8.80;;
3995;SDS011;2012;49.794;9.722;2024-01-07T04:44:50;11.83;;;8.63;;
3995;SDS011;2012;49.794;9.722;2024-01-07T04:47:30;15.43;;;8.30;;
3995;SDS011;2012;49.794;9.722;2024-01-07T04:50:00;10.60;;;8.53;;
3995;SDS011;2012;49.794;9.722;2024-01-07T04:52:28;9.17;;;6.60;;
3995;SDS011;2012;49.794;9.722;2024-01-07T04:54:55;8.10;;;6.27;;
3995;SDS011;2012;49.794;9.722;2024-01-07T04:57:23;12.53;;;6.40;;
3995;SDS011;2012;49.794;9.722;2024-01-07T04:59:50;7.90;;;5.90;;
3995;SDS011;2012;49.794;9.722;2024-01-07T05:02:18;8.07;;;5.90;;
3995;SDS011;2012;49.794;9.722;2024-01-07T05:04:46;6.70;;;5.30;;
3995;SDS011;2012;49.794;9.722;2024-01-07T05:07:13;7.83;;;5.80;;
3995;SDS011;2012;49.794;9.722;2024-01-07T05:09:40;9.03;;;6.70;;
3995;SDS011;2012;49.794;9.722;2024-01-07T05:12:07;8.77;;;6.57;;
3995;SDS011;2012;49.794;9.722;2024-01-07T05:14:35;9.03;;;7.17;;
3995;SDS011;2012;49.794;9.722;2024-01-07T05:17:03;11.23;;;7.53;;
3995;SDS011;2012;49.794;9.722;2024-01-07T05:19:30;13.27;;;8.63;;
3995;SDS011;2012;49.794;9.722;2024-01-07T05:21:57;9.77;;;7.63;;
3995;SDS011;2012;49.794;9.722;2024-01-07T05:24:25;13.90;;;8.90;;
3995;SDS011;2012;49.794;9.722;2024-01-07T05:26:51;11.93;;;7.70;;
3995;SDS011;2012;49.794;9.722;2024-01-07T05:29:19;11.67;;;7.93;;
3995;SDS011;2012;49.794;9.722;2024-01-07T05:31:46;12.70;;;8.00;;
3995;SDS011;2012;49.794;9.722;2024-01-07T05:34:13;12.40;;;8.07;;
3995;SDS011;2012;49.794;9.722;2024-01-07T05:36:41;17.60;;;7.87;;
3995;SDS011;2012;49.794;9.722;2024-01-07T05:39:08;13.60;;;8.30;;
3995;SDS011;2012;49.794;9.722;2024-01-07T05:41:36;13.30;;;8.47;;
3995;SDS011;2012;49.794;9.722;2024-01-07T05:44:06;11.33;;;7.00;;
3995;SDS011;2012;49.794;9.722;2024-01-07T05:46:33;12.90;;;8.10;;
3995;SDS011;2012;49.794;9.722;2024-01-07T05:49:00;12.40;;;7.77;;
3995;SDS011;2012;49.794;9.722;2024-01-07T05:51:27;12.00;;;7.53;;
3995;SDS011;2012;49.794;9.722;2024-01-07T05:53:54;12.30;;;8.27;;
3995;SDS011;2012;49.794;9.722;2024-01-07T05:56:21;11.30;;;8.23;;
3995;SDS011;2012;49.794;9.722;2024-01-07T05:58:48;10.67;;;7.70;;
3995;SDS011;2012;49.794;9.722;2024-01-07T06:01:19;11.77;;;7.57;;
3995;SDS011;2012;49.794;9.722;2024-01-07T06:03:46;9.00;;;6.67;;
3995;SDS011;2012;49.794;9.722;2024-01-07T06:06:14;12.10;;;7.77;;
3995;SDS011;2012;49.794;9.722;2024-01-07T06:08:42;10.43;;;7.43;;
3995;SDS011;2012;49.794;9.722;2024-01-07T06:11:09;10.93;;;7.80;;
3995;SDS011;2012;49.794;9.722;2024-01-07T06:13:38;10.87;;;7.60;;
3995;SDS011;2012;49.794;9.722;2024-01-07T06:16:05;9.13;;;6.37;;
3995;SDS011;2012;49.794;9.722;2024-01-07T06:18:32;9.90;;;7.40;;
3995;SDS011;2012;49.794;9.722;2024-01-07T06:21:02;8.17;;;6.40;;
3995;SDS011;2012;49.794;9.722;2024-01-07T06:23:30;9.47;;;6.77;;
3995;SDS011;2012;49.794;9.722;2024-01-07T06:25:59;10.90;;;6.37;;
3995;SDS011;2012;49.794;9.722;2024-01-07T06:28:26;7.30;;;5.63;;
3995;SDS011;2012;49.794;9.722;2024-01-07T06:30:53;8.47;;;6.40;;
3995;SDS011;2012;49.794;9.722;2024-01-07T06:33:24;8.40;;;5.93;;
3995;SDS011;2012;49.794;9.722;2024-01-07T06:35:51;9.13;;;6.33;;
3995;SDS011;2012;49.794;9.722;2024-01-07T06:38:18;10.20;;;7.00;;
3995;SDS011;2012;49.794;9.722;2024-01-07T06:40:45;9.67;;;7.47;;
3995;SDS011;2012;49.794;9.722;2024-01-07T06:43:12;10.93;;;6.70;;
3995;SDS011;2012;49.794;9.722;2024-01-07T06:45:39;9.07;;;6.43;;
3995;SDS011;2012;49.794;9.722;2024-01-07T06:48:07;11.90;;;7.83;;
3995;SDS011;2012;49.794;9.722;2024-01-07T06:50:34;9.60;;;7.00;;
3995;SDS011;2012;49.794;9.722;2024-01-07T06:53:01;8.17;;;5.90;;
3995;SDS011;2012;49.794;9.722;2024-01-07T06:55:28;9.67;;;6.67;;
3995;SDS011;2012;49.794;9.722;2024-01-07T06:57:54;9.07;;;6.77;;
3995;SDS011;2012;49.794;9.722;2024-01-07T07:00:21;7.40;;;5.73;;
3995;SDS011;2012;49.794;9.722;2024-01-07T07:02:49;8.23;;;6.00;;
3995;SDS011;2012;49.794;9.722;2024-01-07T07:05:16;10.00;;;5.93;;
3995;SDS011;2012;49.794;9.722;2024-01-07T07:07:43;8.10;;;5.80;;
3995;SDS011;2012;49.794;9.722;2024-01-07T07:10:09;11.47;;;7.07;;
3995;SDS011;2012;49.794;9.722;2024-01-07T07:12:36;9.43;;;6.00;;
3995;SDS011;2012;49.794;9.722;2024-01-07T07:15:03;7.70;;;5.73;;
3995;SDS011;2012;49.794;9.722;2024-01-07T07:17:30;8.57;;;5.80;;
3995;SDS011;2012;49.794;9.722;2024-01-07T07:19:57;8.43;;;6.03;;
3995;SDS011;2012;49.794;9.722;2024-01-07T07:22:25;7.17;;;5.40;;
3995;SDS011;2012;49.794;9.722;2024-01-07T07:24:51;8.00;;;6.20;;
3995;SDS011;2012;49.794;9.722;2024-01-07T07:27:21;10.13;;;6.93;;
3995;SDS011;2012;49.794;9.722;2024-01-07T07:29:47;10.33;;;6.80;;
3995;SDS011;2012;49.794;9.722;2024-01-07T07:32:14;11.40;;;7.53;;
3995;SDS011;2012;49.794;9.722;2024-01-07T07:34:41;14.77;;;9.80;;
3995;SDS011;2012;49.794;9.722;2024-01-07T07:37:08;19.37;;;11.00;;
3995;SDS011;2012;49.794;9.722;2024-01-07T07:39:35;41.87;;;21.10;;
3995;SDS011;2012;49.794;9.722;2024-01-07T07:42:02;11.70;;;8.17;;
3995;SDS011;2012;49.794;9.722;2024-01-07T07:44:30;12.57;;;9.80;;
3995;SDS011;2012;49.794;9.722;2024-01-07T07:46:56;13.10;;;8.20;;
3995;SDS011;2012;49.794;9.722;2024-01-07T07:49:24;6.90;;;5.10;;
3995;SDS011;2012;49.794;9.722;2024-01-07T07:51:54;10.00;;;6.70;;
3995;SDS011;2012;49.794;9.722;2024-01-07T07:54:21;8.27;;;6.53;;
3995;SDS011;2012;49.794;9.722;2024-01-07T07:56:48;8.10;;;6.40;;
3995;SDS011;2012;49.794;9.722;2024-01-07T07:59:15;7.70;;;5.90;;
3995;SDS011;2012;49.794;9.722;2024-01-07T08:01:42;10.47;;;7.17;;
3995;SDS011;2012;49.794;9.722;2024-01-07T08:04:09;6.77;;;5.40;;
3995;SDS011;2012;49.794;9.722;2024-01-07T08:06:37;8.13;;;6.37;;
3995;SDS011;2012;49.794;9.722;2024-01-07T08:09:04;14.07;;;8.50;;
3995;SDS011;2012;49.794;9.722;2024-01-07T08:11:31;12.73;;;7.70;;
3995;SDS011;2012;49.794;9.722;2024-01-07T08:13:58;8.67;;;6.50;;
3995;SDS011;2012;49.794;9.722;2024-01-07T08:16:27;9.47;;;6.43;;
3995;SDS011;2012;49.794;9.722;2024-01-07T08:18:54;9.17;;;6.30;;
3995;SDS011;2012;49.794;9.722;2024-01-07T08:21:23;5.80;;;4.93;;
3995;SDS011;2012;49.794;9.722;2024-01-07T08:23:51;11.00;;;7.40;;
3995;SDS011;2012;49.794;9.722;2024-01-07T08:26:19;14.03;;;7.77;;
3995;SDS011;2012;49.794;9.722;2024-01-07T08:28:47;14.83;;;8.60;;
3995;SDS011;2012;49.794;9.722;2024-01-07T08:31:13;8.83;;;6.00;;
3995;SDS011;2012;49.794;9.722;2024-01-07T08:33:40;10.50;;;7.60;;
3995;SDS011;2012;49.794;9.722;2024-01-07T08:36:07;8.60;;;6.07;;
3995;SDS011;2012;49.794;9.722;2024-01-07T08:38:34;9.30;;;6.30;;
3995;SDS011;2012;49.794;9.722;2024-01-07T08:41:01;16.53;;;9.13;;
3995;SDS011;2012;49.794;9.722;2024-01-07T08:43:28;8.20;;;5.93;;
3995;SDS011;2012;49.794;9.722;2024-01-07T08:45:55;11.97;;;6.67;;
3995;SDS011;2012;49.794;9.722;2024-01-07T08:48:22;15.00;;;8.60;;
3995;SDS011;2012;49.794;9.722;2024-01-07T08:50:49;13.43;;;8.57;;
3995;SDS011;2012;49.794;9.722;2024-01-07T08:53:17;9.67;;;7.03;;
3995;SDS011;2012;49.794;9.722;2024-01-07T08:55:45;9.50;;;6.93;;
3995;SDS011;2012;49.794;9.722;2024-01-07T08:58:12;7.17;;;6.47;;
3995;SDS011;2012;49.794;9.722;2024-01-07T09:00:40;7.73;;;5.47;;
3995;SDS011;2012;49.794;9.722;2024-01-07T09:03:08;5.90;;;5.30;;
3995;SDS011;2012;49.794;9.722;2024-01-07T09:05:36;5.73;;;4.77;;
3995;SDS011;2012;49.794;9.722;2024-01-07T09:08:03;10.10;;;7.87;;
3995;SDS011;2012;49.794;9.722;2024-01-07T09:10:31;8.37;;;5.77;;
3995;SDS011;2012;49.794;9.722;2024-01-07T09:12:58;8.60;;;6.67;;
3995;SDS011;2012;49.794;9.722;2024-01-07T09:15:25;7.80;;;5.70;;
3995;SDS011;2012;49.794;9.722;2024-01-07T09:17:52;8.67;;;7.20;;
3995;SDS011;2012;49.794;9.722;2024-01-07T09:20:19;8.17;;;6.90;;
3995;SDS011;2012;49.794;9.722;2024-01-07T09:22:46;7.17;;;6.20;;
3995;SDS011;2012;49.794;9.722;2024-01-07T09:25:14;7.87;;;6.37;;
3995;SDS011;2012;49.794;9.722;2024-01-07T09:27:42;11.67;;;7.63;;
3995;SDS011;2012;49.794;9.722;2024-01-07T09:30:12;19.80;;;7.63;;
3995;SDS011;2012;49.794;9.722;2024-01-07T09:32:41;11.37;;;6.33;;
3995;SDS011;2012;49.794;9.722;2024-01-07T09:35:08;20.33;;;10.80;;
3995;SDS011;2012;49.794;9.722;2024-01-07T09:37:35;12.87;;;7.93;;
3995;SDS011;2012;49.794;9.722;2024-01-07T09:40:03;8.73;;;6.67;;
3995;SDS011;2012;49.794;9.722;2024-01-07T09:42:34;10.60;;;7.33;;
3995;SDS011;2012;49.794;9.722;2024-01-07T09:45:02;6.87;;;6.17;;
3995;SDS011;2012;49.794;9.722;2024-01-07T09:47:31;10.40;;;7.10;;
3995;SDS011;2012;49.794;9.722;2024-01-07T09:49:58;9.77;;;6.60;;
3995;SDS011;2012;49.794;9.722;2024-01-07T09:52:25;11.20;;;7.00;;
3995;SDS011;2012;49.794;9.722;2024-01-07T09:54:58;9.60;;;6.27;;
3995;SDS011;2012;49.794;9.722;2024-01-07T09:57:26;10.20;;;7.10;;
3995;SDS011;2012;49.794;9.722;2024-01-07T09:59:53;10.10;;;7.07;;
3995;SDS011;2012;49.794;9.722;2024-01-07T10:02:20;12.03;;;8.30;;
3995;SDS011;2012;49.794;9.722;2024-01-07T10:04:49;10.53;;;7.17;;
3995;SDS011;2012;49.794;9.722;2024-01-07T10:07:17;9.07;;;7.60;;
3995;SDS011;2012;49.794;9.722;2024-01-07T10:09:44;11.53;;;8.00;;
3995;SDS011;2012;49.794;9.722;2024-01-07T10:12:11;11.03;;;7.40;;
3995;SDS011;2012;49.794;9.722;2024-01-07T10:14:39;11.20;;;8.30;;
3995;SDS011;2012;49.794;9.722;2024-01-07T10:17:16;9.17;;;7.70;;
3995;SDS011;2012;49.794;9.722;2024-01-07T10:19:44;9.60;;;7.23;;
3995;SDS011;2012;49.794;9.722;2024-01-07T10:22:12;9.70;;;7.30;;
3995;SDS011;2012;49.794;9.722;2024-01-07T10:24:40;7.77;;;6.63;;
3995;SDS011;2012;49.794;9.722;2024-01-07T10:27:08;8.43;;;7.13;;
3995;SDS011;2012;49.794;9.722;2024-01-07T10:29:37;9.00;;;6.63;;
3995;SDS011;2012;49.794;9.722;2024-01-07T10:32:04;9.73;;;6.53;;
3995;SDS011;2012;49.794;9.722;2024-01-07T10:34:32;8.30;;;6.67;;
3995;SDS011;2012;49.794;9.722;2024-01-07T10:37:02;10.70;;;7.90;;
3995;SDS011;2012;49.794;9.722;2024-01-07T10:39:31;10.10;;;7.83;;
3995;SDS011;2012;49.794;9.722;2024-01-07T10:41:58;9.13;;;6.57;;
3995;SDS011;2012;49.794;9.722;2024-01-07T10:44:26;9.20;;;6.37;;
3995;SDS011;2012;49.794;9.722;2024-01-07T10:46:56;9.73;;;6.80;;
3995;SDS011;2012;49.794;9.722;2024-01-07T10:49:24;10.00;;;5.40;;
3995;SDS011;2012;49.794;9.722;2024-01-07T10:54:23;7.07;;;5.90;;
3995;SDS011;2012;49.794;9.722;2024-01-07T10:56:53;9.10;;;6.83;;
3995;SDS011;2012;49.794;9.722;2024-01-07T10:59:24;9.53;;;6.30;;
3995;SDS011;2012;49.794;9.722;2024-01-07T11:01:53;8.27;;;6.17;;
3995;SDS011;2012;49.794;9.722;2024-01-07T11:04:26;12.13;;;7.57;;
3995;SDS011;2012;49.794;9.722;2024-01-07T11:07:05;12.70;;;6.80;;
3995;SDS011;2012;49.794;9.722;2024-01-07T11:09:45;13.90;;;9.10;;
3995;SDS011;2012;49.794;9.722;2024-01-07T11:12:15;8.37;;;6.80;;
3995;SDS011;2012;49.794;9.722;2024-01-07T11:14:43;17.47;;;6.97;;
3995;SDS011;2012;49.794;9.722;2024-01-07T11:22:32;14.33;;;6.47;;
3995;SDS011;2012;49.794;9.722;2024-01-07T11:25:00;9.40;;;5.90;;
3995;SDS011;2012;49.794;9.722;2024-01-07T11:27:28;9.03;;;6.43;;
3995;SDS011;2012;49.794;9.722;2024-01-07T11:30:17;11.70;;;6.90;;
3995;SDS011;2012;49.794;9.722;2024-01-07T11:32:45;8.43;;;5.77;;
3995;SDS011;2012;49.794;9.722;2024-01-07T11:35:15;7.93;;;5.50;;
3995;SDS011;2012;49.794;9.722;2024-01-07T11:37:47;8.27;;;5.63;;
3995;SDS011;2012;49.794;9.722;2024-01-07T11:40:14;9.13;;;6.17;;
3995;SDS011;2012;49.794;9.722;2024-01-07T11:42:42;7.47;;;5.93;;
3995;SDS011;2012;49.794;9.722;2024-01-07T11:45:11;8.90;;;5.67;;
3995;SDS011;2012;49.794;9.722;2024-01-07T11:47:38;10.90;;;7.30;;
3995;SDS011;2012;49.794;9.722;2024-01-07T11:50:05;10.43;;;5.80;;
3995;SDS011;2012;49.794;9.722;2024-01-07T11:52:32;8.00;;;6.57;;
3995;SDS011;2012;49.794;9.722;2024-01-07T11:55:01;8.83;;;6.77;;
3995;SDS011;2012;49.794;9.722;2024-01-07T11:57:30;8.30;;;6.00;;
3995;SDS011;2012;49.794;9.722;2024-01-07T11:59:57;7.23;;;5.90;;
3995;SDS011;2012;49.794;9.722;2024-01-07T12:02:24;6.80;;;5.60;;
3995;SDS011;2012;49.794;9.722;2024-01-07T12:04:56;7.70;;;6.00;;
3995;SDS011;2012;49.794;9.722;2024-01-07T12:07:23;10.60;;;6.40;;
3995;SDS011;2012;49.794;9.722;2024-01-07T12:09:56;8.07;;;6.00;;
3995;SDS011;2012;49.794;9.722;2024-01-07T12:12:24;5.93;;;5.33;;
3995;SDS011;2012;49.794;9.722;2024-01-07T12:14:51;7.50;;;5.57;;
3995;SDS011;2012;49.794;9.722;2024-01-07T12:17:18;7.83;;;6.30;;
3995;SDS011;2012;49.794;9.722;2024-01-07T12:19:46;8.20;;;6.00;;
3995;SDS011;2012;49.794;9.722;2024-01-07T12:22:12;9.17;;;6.20;;
3995;SDS011;2012;49.794;9.722;2024-01-07T12:24:40;8.50;;;6.53;;
3995;SDS011;2012;49.794;9.722;2024-01-07T12:27:06;11.33;;;6.17;;
3995;SDS011;2012;49.794;9.722;2024-01-07T12:29:34;6.97;;;5.63;;
3995;SDS011;2012;49.794;9.722;2024-01-07T12:32:01;12.70;;;7.73;;
3995;SDS011;2012;49.794;9.722;2024-01-07T12:34:30;8.70;;;5.70;;
3995;SDS011;2012;49.794;9.722;2024-01-07T12:36:57;16.43;;;8.33;;
3995;SDS011;2012;49.794;9.722;2024-01-07T12:39:26;10.13;;;6.37;;
3995;SDS011;2012;49.794;9.722;2024-01-07T12:41:54;7.30;;;6.30;;
3995;SDS011;2012;49.794;9.722;2024-01-07T12:44:21;7.07;;;5.63;;
3995;SDS011;2012;49.794;9.722;2024-01-07T12:46:48;8.27;;;5.30;;
3995;SDS011;2012;49.794;9.722;2024-01-07T12:49:18;8.00;;;5.80;;
3995;SDS011;2012;49.794;9.722;2024-01-07T12:51:45;9.73;;;6.50;;
3995;SDS011;2012;49.794;9.722;2024-01-07T12:54:12;9.63;;;6.10;;
3995;SDS011;2012;49.794;9.722;2024-01-07T12:56:38;7.70;;;4.80;;
3995;SDS011;2012;49.794;9.722;2024-01-07T12:59:05;7.70;;;6.00;;
3995;SDS011;2012;49.794;9.722;2024-01-07T13:01:32;8.63;;;5.50;;
3995;SDS011;2012;49.794;9.722;2024-01-07T13:04:01;10.90;;;5.43;;
3995;SDS011;2012;49.794;9.722;2024-01-07T13:06:29;5.33;;;4.33;;
3995;SDS011;2012;49.794;9.722;2024-01-07T13:08:56;7.20;;;5.40;;
3995;SDS011;2012;49.794;9.722;2024-01-07T13:11:22;6.70;;;5.10;;
3995;SDS011;2012;49.794;9.722;2024-01-07T13:13:49;7.30;;;5.00;;
3995;SDS011;2012;49.794;9.722;2024-01-07T13:16:16;8.23;;;5.90;;
3995;SDS011;2012;49.794;9.722;2024-01-07T13:18:45;14.13;;;8.87;;
3995;SDS011;2012;49.794;9.722;2024-01-07T13:21:12;16.90;;;7.63;;
3995;SDS011;2012;49.794;9.722;2024-01-07T13:23:40;9.30;;;5.73;;
3995;SDS011;2012;49.794;9.722;2024-01-07T13:26:10;12.50;;;7.77;;
3995;SDS011;2012;49.794;9.722;2024-01-07T13:28:37;7.30;;;5.20;;
3995;SDS011;2012;49.794;9.722;2024-01-07T13:31:04;14.77;;;7.90;;
3995;SDS011;2012;49.794;9.722;2024-01-07T13:33:33;11.77;;;7.40;;
3995;SDS011;2012;49.794;9.722;2024-01-07T13:36:00;11.60;;;6.47;;
3995;SDS011;2012;49.794;9.722;2024-01-07T13:38:28;9.27;;;6.43;;
3995;SDS011;2012;49.794;9.722;2024-01-07T13:40:55;9.40;;;5.67;;
3995;SDS011;2012;49.794;9.722;2024-01-07T13:43:24;7.47;;;6.00;;
3995;SDS011;2012;49.794;9.722;2024-01-07T13:45:54;8.00;;;5.63;;
3995;SDS011;2012;49.794;9.722;2024-01-07T13:48:21;11.90;;;7.53;;
3995;SDS011;2012;49.794;9.722;2024-01-07T13:50:48;10.60;;;6.60;;
3995;SDS011;2012;49.794;9.722;2024-01-07T13:53:16;7.60;;;5.80;;
3995;SDS011;2012;49.794;9.722;2024-01-07T13:55:43;10.47;;;6.83;;
3995;SDS011;2012;49.794;9.722;2024-01-07T13:58:12;8.70;;;5.80;;
3995;SDS011;2012;49.794;9.722;2024-01-07T14:00:41;7.13;;;5.40;;
3995;SDS011;2012;49.794;9.722;2024-01-07T14:03:08;11.67;;;6.90;;
3995;SDS011;2012;49.794;9.722;2024-01-07T14:05:35;11.57;;;6.63;;
3995;SDS011;2012;49.794;9.722;2024-01-07T14:08:02;8.27;;;5.50;;
3995;SDS011;2012;49.794;9.722;2024-01-07T14:10:29;12.53;;;6.30;;
3995;SDS011;2012;49.794;9.722;2024-01-07T14:12:56;11.20;;;5.60;;
3995;SDS011;2012;49.794;9.722;2024-01-07T14:15:23;9.80;;;5.67;;
3995;SDS011;2012;49.794;9.722;2024-01-07T14:17:50;9.90;;;6.37;;
3995;SDS011;2012;49.794;9.722;2024-01-07T14:20:17;8.07;;;5.13;;
3995;SDS011;2012;49.794;9.722;2024-01-07T14:22:44;6.87;;;4.53;;
3995;SDS011;2012;49.794;9.722;2024-01-07T14:25:11;12.93;;;6.23;;
3995;SDS011;2012;49.794;9.722;2024-01-07T14:27:40;9.87;;;6.27;;
3995;SDS011;2012;49.794;9.722;2024-01-07T14:30:07;11.13;;;7.00;;
3995;SDS011;2012;49.794;9.722;2024-01-07T14:32:35;8.73;;;5.07;;
3995;SDS011;2012;49.794;9.722;2024-01-07T14:35:03;7.83;;;4.77;;
3995;SDS011;2012;49.794;9.722;2024-01-07T14:37:30;6.00;;;4.90;;
3995;SDS011;2012;49.794;9.722;2024-01-07T14:39:57;9.50;;;5.87;;
3995;SDS011;2012;49.794;9.722;2024-01-07T14:42:24;6.83;;;4.90;;
3995;SDS011;2012;49.794;9.722;2024-01-07T14:44:51;7.20;;;4.60;;
3995;SDS011;2012;49.794;9.722;2024-01-07T14:47:18;5.37;;;4.60;;
3995;SDS011;2012;49.794;9.722;2024-01-07T14:49:44;7.33;;;4.87;;
3995;SDS011;2012;49.794;9.722;2024-01-07T14:52:12;6.13;;;4.73;;
3995;SDS011;2012;49.794;9.722;2024-01-07T14:54:39;7.93;;;5.23;;
3995;SDS011;2012;49.794;9.722;2024-01-07T14:57:05;6.00;;;4.23;;
3995;SDS011;2012;49.794;9.722;2024-01-07T14:59:35;5.27;;;4.40;;
3995;SDS011;2012;49.794;9.722;2024-01-07T15:02:04;6.73;;;3.80;;
3995;SDS011;2012;49.794;9.722;2024-01-07T15:04:32;5.47;;;3.83;;
3995;SDS011;2012;49.794;9.722;2024-01-07T15:06:59;5.90;;;4.77;;
3995;SDS011;2012;49.794;9.722;2024-01-07T15:09:26;5.60;;;4.60;;
3995;SDS011;2012;49.794;9.722;2024-01-07T15:11:54;20.03;;;4.63;;
3995;SDS011;2012;49.794;9.722;2024-01-07T15:14:22;6.33;;;4.03;;
3995;SDS011;2012;49.794;9.722;2024-01-07T15:16:49;5.50;;;4.27;;
3995;SDS011;2012;49.794;9.722;2024-01-07T15:19:21;3.37;;;2.90;;